Weather reports worldwide

Advertisment
Konya, Turkey (17244): temperature & dewpoint: 19.04.2019 15:00:00 - 25.04.2019 15:00:00 (EEST)Konya, Turkey (17244): wind speed: 19.04.2019 15:00:00 - 25.04.2019 15:00:00 (EEST)Konya, Turkey (17244): wind direction: 19.04.2019 15:00:00 - 25.04.2019 15:00:00 (EEST)Konya, Turkey (17244): visibility: 19.04.2019 15:00:00 - 25.04.2019 15:00:00 (EEST)
Date & Time tt [°C] td [°C] ff [km/h] ff [kn] dd vv [km]
25.04.2019 15:00:00 20,3 6,2 21 11 NNE 10
25.04.2019 14:00:00 20,0 6,0 15 8 NNE 10
25.04.2019 13:00:00 19,0 4,0 15 8 NNW 10
25.04.2019 12:00:00 18,0 7,1 11 6 N 10
25.04.2019 11:00:00 16,0 7,0 8 4 E 10
25.04.2019 10:00:00 16,0 8,0 4 2 - 10
25.04.2019 09:00:00 13,2 7,1 4 2 - 10
25.04.2019 08:00:00 10,0 6,0 4 2 - 10
25.04.2019 07:00:00 7,0 5,0 4 2 W 10
25.04.2019 06:00:00 6,7 4,3 5 3 W 10
25.04.2019 05:00:00 6,0 5,0 5 3 N 10
25.04.2019 04:00:00 6,0 4,0 11 6 NNE 10
25.04.2019 03:00:00 6,9 4,3 8 4 N 10
25.04.2019 02:00:00 8,0 5,0 4 2 - 10
25.04.2019 01:00:00 10,0 5,0 5 3 WSW 10
25.04.2019 00:00:00 9,9 4,9 4 2 SE 10
24.04.2019 23:00:00 11,0 5,0 9 5 WNW 10
24.04.2019 22:00:00 12,0 5,0 13 7 NW 10
24.04.2019 21:00:00 11,3 5,9 16 9 N 10
24.04.2019 20:00:00 15,0 6,0 15 8 N 10
24.04.2019 19:00:00 17,0 6,0 15 8 N 10
24.04.2019 18:00:00 17,8 5,7 21 11 N 10
24.04.2019 17:00:00 18,0 5,0 21 11 N 10
24.04.2019 16:00:00 19,0 5,0 21 11 N 10
24.04.2019 15:00:00 17,5 4,0 21 11 N 10
24.04.2019 14:00:00 17,0 4,0 18 10 N 10
24.04.2019 13:00:00 16,0 3,0 11 6 NE 10
24.04.2019 12:00:00 15,1 1,3 5 3 ENE 20
24.04.2019 11:00:00 13,0 2,0 4 2 - 10
24.04.2019 10:00:00 11,0 1,0 4 2 - 10
24.04.2019 09:00:00 7,8 -0,1 4 2 NNW 20
24.04.2019 08:00:00 6,0 0,0 8 4 E 10
24.04.2019 07:00:00 5,0 -1,0 4 2 - 10
24.04.2019 06:00:00 4,0 0,2 4 2 - 10
24.04.2019 05:00:00 3,0 -1,0 8 4 N 10
24.04.2019 04:00:00 3,0 -1,0 9 5 NNE 10
24.04.2019 03:00:00 5,4 -1,3 4 2 - 10
24.04.2019 02:00:00 8,0 -1,0 8 4 SW 10
24.04.2019 01:00:00 8,0 -1,0 9 5 WSW 10
24.04.2019 00:00:00 7,7 -1,9 8 4 SW 10
23.04.2019 23:00:00 7,0 -1,0 4 2 - 10
23.04.2019 22:00:00 7,0 -1,0 4 2 - 10
23.04.2019 21:00:00 9,0 -1,8 0 0 N 10
23.04.2019 20:00:00 11,0 -2,0 4 2 E 10
23.04.2019 19:00:00 13,0 -2,0 9 5 ENE 10
23.04.2019 18:00:00 14,1 -2,8 9 5 NE 10
23.04.2019 17:00:00 14,0 -1,0 11 6 NE 10
23.04.2019 16:00:00 14,0 -1,0 11 6 NE 10
23.04.2019 15:00:00 13,7 -1,8 5 3 - 10
23.04.2019 14:00:00 13,0 -2,0 5 3 NNW 10
23.04.2019 13:00:00 12,0 -3,0 8 4 - 10
23.04.2019 12:00:00 11,0 -2,4 8 4 - 10
23.04.2019 11:00:00 10,0 -2,0 11 6 - 10
23.04.2019 10:00:00 9,0 -2,0 4 2 - 10
23.04.2019 09:00:00 7,0 -0,6 8 4 E 10
23.04.2019 08:00:00 5,0 -1,0 2 1 - 10
23.04.2019 07:00:00 0,0 -3,0 4 2 NNE 10
23.04.2019 06:00:00 -1,1 -3,2 0 0 N 10
23.04.2019 05:00:00 1,0 -2,0 5 3 WSW 10
23.04.2019 04:00:00 3,0 -2,0 8 4 NW 10
23.04.2019 03:00:00 2,6 -1,4 8 4 WSW 10
23.04.2019 02:00:00 2,0 -2,0 4 2 - 10
23.04.2019 01:00:00 3,0 -2,0 8 4 WSW 10
23.04.2019 00:00:00 2,2 -2,4 5 3 NW 10
22.04.2019 23:00:00 4,0 -2,0 4 2 - 10
22.04.2019 22:00:00 4,0 -2,0 5 3 W 10
22.04.2019 21:00:00 5,5 -1,7 8 4 NE 20
22.04.2019 20:00:00 7,0 -2,0 9 5 ENE 10
22.04.2019 19:00:00 9,0 -2,0 13 7 ENE 10
22.04.2019 18:00:00 9,0 -2,3 16 9 NE 10
22.04.2019 17:00:00 10,0 -4,0 16 9 N 10
22.04.2019 16:00:00 10,0 -2,0 22 12 NNW 10
22.04.2019 15:00:00 8,9 -3,7 18 10 N 10
22.04.2019 14:00:00 8,0 -4,0 22 12 NNW 10
22.04.2019 13:00:00 7,0 -3,0 22 12 NNW 10
22.04.2019 12:00:00 6,7 -3,2 26 14 N 10
22.04.2019 11:00:00 6,0 -4,0 29 16 N 10
22.04.2019 10:00:00 5,0 -3,0 29 16 N 10
22.04.2019 09:00:00 3,0 -3,7 26 14 NNW 10
22.04.2019 08:00:00 3,0 -4,0 16 9 NNW 10
22.04.2019 07:00:00 1,0 -4,0 22 12 NW 10
22.04.2019 06:00:00 1,5 -4,1 22 12 NW 10
22.04.2019 05:00:00 2,0 -4,0 16 9 NNW 10
22.04.2019 04:00:00 2,0 -3,0 21 11 NW 10
22.04.2019 03:00:00 2,2 -3,5 26 14 NW 10
22.04.2019 02:00:00 2,0 -3,0 29 16 NNW 10
22.04.2019 01:00:00 2,0 -3,0 26 14 NW 10
22.04.2019 00:00:00 2,8 -2,5 29 16 NNW 10
21.04.2019 23:00:00 3,0 -2,0 34 18 NNW 10
21.04.2019 22:00:00 4,0 -2,0 28 15 NNW 10
21.04.2019 21:00:00 4,4 -1,9 34 18 NW 10
21.04.2019 20:00:00 5,0 -2,0 29 16 NW 10
21.04.2019 19:00:00 6,0 -1,0 29 16 NNW 10
21.04.2019 18:00:00 6,3 -1,4 37 20 NW 10
21.04.2019 17:00:00 7,0 -1,0 34 18 NW 10
21.04.2019 16:00:00 7,0 -2,0 31 17 NNW 10
21.04.2019 15:00:00 6,1 -0,3 35 19 NNW 10
21.04.2019 14:00:00 6,0 0,0 41 22 NNW 10
21.04.2019 13:00:00 5,0 -1,0 35 19 NNW 10
21.04.2019 12:00:00 6,0 -0,5 46 25 NNW 10
21.04.2019 11:00:00 5,0 -1,0 42 23 NNW 10
21.04.2019 10:00:00 4,0 -1,0 31 17 NNW 10
21.04.2019 09:00:00 1,9 -1,9 26 14 NW 10
21.04.2019 08:00:00 1,0 -2,0 26 14 NW 10
21.04.2019 07:00:00 0,0 -3,0 29 16 NNW 10
21.04.2019 06:00:00 -0,5 -3,6 29 16 NNW 10
21.04.2019 05:00:00 -1,0 -4,0 28 15 NW 10
21.04.2019 04:00:00 -1,0 -4,0 24 13 NNW 10
21.04.2019 03:00:00 -0,3 -4,5 31 17 NW 10
21.04.2019 02:00:00 0,0 -3,0 22 12 NW 10
21.04.2019 01:00:00 1,0 -4,0 29 16 NNW 10
21.04.2019 00:00:00 1,2 -2,5 29 16 NNW 10
20.04.2019 23:00:00 1,0 -3,0 18 10 NNW 10
20.04.2019 22:00:00 1,0 -2,0 16 9 NNW 10
20.04.2019 21:00:00 0,3 -1,6 22 12 NW 10
20.04.2019 20:00:00 0,0 -1,0 18 10 NNW 10
20.04.2019 19:00:00 1,0 0,0 11 6 N 10
20.04.2019 18:00:00 3,8 -3,6 29 16 NW 8
20.04.2019 17:00:00 5,0 -3,0 31 17 NW 10
20.04.2019 16:00:00 6,0 -5,0 26 14 NW 10
20.04.2019 15:00:00 5,9 -5,7 22 12 NNW 10
20.04.2019 14:00:00 4,0 -4,0 24 13 N 10
20.04.2019 13:00:00 4,0 -4,0 24 13 N 10
20.04.2019 12:00:00 4,3 -3,5 24 13 NNW 10
20.04.2019 11:00:00 4,0 -4,0 26 14 N 10
20.04.2019 10:00:00 4,0 -4,0 28 15 N 10
20.04.2019 09:00:00 2,2 -5,4 28 15 NNW 10
20.04.2019 08:00:00 2,0 -4,0 26 14 NNW 10
20.04.2019 07:00:00 1,0 -4,0 21 11 NW 10
20.04.2019 06:00:00 0,1 -4,6 21 11 NW 20
20.04.2019 05:00:00 1,0 -5,0 18 10 NNW 10
20.04.2019 04:00:00 1,0 -5,0 21 11 NNW 10
20.04.2019 03:00:00 0,7 -4,2 21 11 NW 10
20.04.2019 02:00:00 1,0 -3,0 18 10 NNW 10
20.04.2019 01:00:00 2,0 -4,0 16 9 NNW 10
20.04.2019 00:00:00 2,9 -3,3 18 10 NW 10
19.04.2019 23:00:00 3,0 -3,0 21 11 NNW 10
19.04.2019 22:00:00 4,0 -2,0 26 14 NNW 10
19.04.2019 21:00:00 4,6 -1,4 31 17 N 10
19.04.2019 20:00:00 5,0 -1,0 31 17 NNW 10
19.04.2019 19:00:00 7,0 -1,0 39 21 NNW 10
19.04.2019 18:00:00 6,9 0,2 35 19 NW 10
19.04.2019 17:00:00 10,0 1,0 35 19 N 10
19.04.2019 16:00:00 9,0 1,0 35 19 NW 10
19.04.2019 15:00:00 10,1 0,9 31 17 NNW 10

tt = temperature
td = dewpoint
ff = wind speed
dd = wind direction
vv = visibility

Next stations